Other Surface Observations
Issued by NWS Missoula, MT

Home | Current Version | Previous Version | Text Only | Print | Product List | Glossary On
Versions: 1 2 3 4 5 6 7 8 9 10 11 12 13 14 15 16 17 18 19 20 21 22 23 24 25 26 27 28 29 30 31 32 33 34 35 36 37 38 39 40 41 42 43 44 45 46 47 48 49 50
000
SXUS55 KMSO 121304
OSOMSO
MONTANA AWOS SUMMARY
NATIONAL WEATHER SERVICE MISSOULA MT
703 AM MDT SAT JUL 12 2014

Montana AWOS Reports

LAUREL      |K6S8 121255Z AUTO 00000KT 40SM 17/11 A3017 RMK AO1 T01670106
ROUNDUP     |KRPX 121255Z AUTO 22005KT 40SM 17/10 A3009 RMK AO1 T01670100
SCOBEY      |K9S2 121255Z AUTO 12/08 A3013 RMK AO1 T01170083
MALTA       |KM75 121255Z AUTO 00000KT 25SM 14/12 A3011 RMK AO1 T01440122
EKALAKA     |K97M 121255Z AUTO 11009KT 40SM 16/13 A3012 RMK AO1 T01610133
PLAINS      |KS34 121255Z AUTO 00000KT 10SM 11/08 A3017 RMK AO1 T01110078




USA.gov is the U.S. government's official web portal to all federal, state and local government web resources and services.